Time;durP1;ratioP1;P1;durP2;ratioP2;P2;SDS_P1;SDS_P2;PMS_P1;PMS_P2;Temp;Humidity;BMP_temperature;BMP_pressure;BME280_temperature;BME280_humidity;BME280_pressure;Samples;Min_cycle;Max_cycle;Signal;HPM_P1;HPM_P2
2022/12/10 00:00:34;;;;;;;69.10;32.63;;;0.00;1.00;;;;;;10400609;28;20226;-76
2022/12/10 00:06:00;;;;;;;61.63;29.57;;;0.00;1.00;;;;;;10399976;28;20210;-77
2022/12/10 00:11:23;;;;;;;51.63;24.63;;;0.00;1.00;;;;;;10385635;28;20231;-77
2022/12/10 00:16:44;;;;;;;72.37;31.17;;;0.00;1.00;;;;;;10399158;28;20525;-76
2022/12/10 00:22:05;;;;;;;86.77;32.07;;;0.00;1.00;;;;;;10399373;28;20201;-75
2022/12/10 00:27:26;;;;;;;97.27;31.87;;;0.00;1.00;;;;;;10398785;28;20216;-76
2022/12/10 00:32:48;;;;;;;85.97;32.03;;;-0.10;1.00;;;;;;10398787;28;20270;-79
2022/12/10 00:38:09;;;;;;;68.00;28.03;;;-0.20;1.00;;;;;;10399698;28;20211;-75
2022/12/10 00:43:30;;;;;;;53.13;25.23;;;-0.10;1.00;;;;;;10384629;28;20204;-74
2022/12/10 00:48:51;;;;;;;46.67;22.77;;;-0.10;1.00;;;;;;10384418;28;20230;-78
2022/12/10 00:54:13;;;;;;;46.13;24.20;;;-0.10;1.00;;;;;;10399017;28;20265;-76
2022/12/10 00:59:34;;;;;;;43.13;21.20;;;-0.10;1.00;;;;;;10398267;28;20238;-78
2022/12/10 01:04:55;;;;;;;43.83;22.53;;;-0.10;1.00;;;;;;10398835;28;20195;-76
2022/12/10 01:10:17;;;;;;;39.80;21.10;;;-0.20;1.00;;;;;;10383480;28;20234;-76
2022/12/10 01:15:39;;;;;;;39.20;20.17;;;-0.30;1.00;;;;;;10396753;28;20257;-75
2022/12/10 01:21:06;;;;;;;35.27;18.93;;;-0.20;44.20;;;;;;10397214;28;20211;-74
2022/12/10 01:26:30;;;;;;;36.93;19.93;;;-0.20;1.00;;;;;;10397114;28;20195;-76
2022/12/10 01:31:53;;;;;;;31.47;17.60;;;-0.20;1.00;;;;;;10397270;28;20234;-77
2022/12/10 01:37:14;;;;;;;32.10;18.50;;;-0.20;1.00;;;;;;10396536;28;20191;-75
2022/12/10 01:42:36;;;;;;;33.73;18.20;;;-0.30;1.00;;;;;;10410318;28;20572;-77
2022/12/10 01:47:57;;;;;;;29.83;17.30;;;-0.20;99.90;;;;;;10396196;28;20210;-77
2022/12/10 01:53:20;;;;;;;28.60;16.87;;;-0.20;94.90;;;;;;10381973;28;20418;-76
2022/12/10 01:58:43;;;;;;;30.40;16.00;;;-0.20;1.00;;;;;;10395654;28;20578;-77
2022/12/10 02:04:34;;;;;;;27.17;15.67;;;-0.20;99.90;;;;;;10395655;28;20200;-74
2022/12/10 02:10:19;;;;;;;23.53;14.07;;;-0.20;1.00;;;;;;10379001;28;20231;-77
2022/12/10 02:15:50;;;;;;;24.47;13.53;;;-0.10;1.00;;;;;;10375481;28;20296;-76
2022/12/10 02:21:43;;;;;;;23.50;13.23;;;-0.10;1.00;;;;;;10362224;28;20254;-78
2022/12/10 02:27:14;;;;;;;20.83;13.77;;;-0.10;36.10;;;;;;10361006;28;20226;-77
2022/12/10 02:32:41;;;;;;;24.30;14.27;;;-0.10;14.10;;;;;;10378079;28;20303;-78
2022/12/10 02:38:18;;;;;;;18.30;11.83;;;-0.10;1.00;;;;;;10364647;28;20202;-79
2022/12/10 02:43:39;;;;;;;14.47;9.63;;;-0.10;1.00;;;;;;10353281;28;20278;-75
2022/12/10 02:49:03;;;;;;;20.27;11.60;;;-0.10;1.00;;;;;;10378687;28;20225;-74
2022/12/10 02:54:45;;;;;;;20.73;12.90;;;-0.10;99.90;;;;;;10394691;28;20198;-77
2022/12/10 03:00:18;;;;;;;17.97;11.10;;;-0.10;1.00;;;;;;10380344;28;20558;-76
2022/12/10 03:06:17;;;;;;;18.27;11.17;;;-0.10;1.00;;;;;;10394262;28;20476;-74
2022/12/10 03:11:39;;;;;;;15.90;9.30;;;-0.10;99.90;;;;;;10382279;28;20226;-76
2022/12/10 03:17:03;;;;;;;16.07;9.97;;;-0.10;1.00;;;;;;10391754;28;20198;-78
2022/12/10 03:22:24;;;;;;;14.17;9.30;;;-0.10;1.00;;;;;;10388036;28;20207;-80
2022/12/10 03:27:49;;;;;;;15.17;9.40;;;-0.10;1.00;;;;;;10401683;28;20268;-77
2022/12/10 03:33:11;;;;;;;11.17;7.63;;;-0.10;99.90;;;;;;10347099;28;20251;-77
2022/12/10 03:38:34;;;;;;;13.50;8.83;;;-0.20;1.00;;;;;;10361534;28;20198;-76
2022/12/10 03:43:57;;;;;;;11.00;7.70;;;-0.20;99.90;;;;;;10379131;28;21394;-76
2022/12/10 03:49:19;;;;;;;10.27;7.33;;;-0.20;1.00;;;;;;10400728;28;20233;-79
2022/12/10 03:54:40;;;;;;;11.67;8.17;;;-0.30;99.90;;;;;;10401002;28;20195;-76
2022/12/10 04:00:03;;;;;;;16.17;10.07;;;-0.20;99.90;;;;;;10400716;28;20189;-77
2022/12/10 04:05:32;;;;;;;15.07;9.77;;;-0.20;99.90;;;;;;10401274;28;20196;-76
2022/12/10 04:10:53;;;;;;;14.40;8.57;;;-0.20;1.00;;;;;;10400196;28;20234;-78
2022/12/10 04:16:26;;;;;;;12.40;8.23;;;-0.30;1.00;;;;;;10399938;28;20200;-74
2022/12/10 04:27:33;;;;;;;12.30;8.13;;;-0.40;1.00;;;;;;10400426;28;20213;-74
2022/12/10 04:32:54;;;;;;;9.93;6.83;;;-0.50;1.00;;;;;;10374631;28;20473;-77
2022/12/10 04:38:15;;;;;;;7.30;5.03;;;-0.50;99.90;;;;;;10374707;28;20208;-78
2022/12/10 04:43:36;;;;;;;30.20;14.93;;;-0.60;99.90;;;;;;10376915;28;20217;-78
2022/12/10 04:48:57;;;;;;;17.20;10.47;;;-0.50;99.90;;;;;;10398584;28;20227;-78
2022/12/10 04:54:19;;;;;;;13.87;8.47;;;-0.50;1.00;;;;;;10399313;28;20221;-78
2022/12/10 04:59:40;;;;;;;12.63;7.00;;;-0.60;1.00;;;;;;10400291;28;20571;-77
2022/12/10 05:05:03;;;;;;;11.50;8.10;;;-0.50;1.00;;;;;;10398928;28;20207;-78
2022/12/10 05:10:24;;;;;;;15.30;12.53;;;-0.50;1.00;;;;;;10398670;28;20219;-77
2022/12/10 05:15:45;;;;;;;16.87;12.97;;;-0.50;99.90;;;;;;10403694;28;20205;-77
2022/12/10 05:21:10;;;;;;;24.13;14.50;;;-0.40;99.90;;;;;;10438248;28;20202;-77
2022/12/10 05:26:31;;;;;;;23.97;13.17;;;-0.40;1.00;;;;;;10424062;28;20484;-79
2022/12/10 05:31:52;;;;;;;46.00;24.17;;;-0.30;52.90;;;;;;10403958;28;20245;-74
2022/12/10 05:37:13;;;;;;;38.90;21.50;;;-0.30;46.90;;;;;;10382681;28;20219;-77
2022/12/10 05:42:34;;;;;;;26.13;15.33;;;-0.40;1.00;;;;;;10397122;28;20196;-76
2022/12/10 05:47:55;;;;;;;30.97;18.03;;;-0.30;99.90;;;;;;10397104;28;20190;-76
2022/12/10 05:53:17;;;;;;;32.40;20.93;;;-0.40;99.90;;;;;;10382344;28;20206;-77
2022/12/10 05:58:40;;;;;;;28.87;15.77;;;-0.40;1.00;;;;;;10381947;28;20199;-76
2022/12/10 06:04:03;;;;;;;22.60;14.23;;;-0.40;99.90;;;;;;10396878;28;20201;-75
2022/12/10 06:09:24;;;;;;;23.63;15.27;;;-0.40;1.00;;;;;;10395570;28;20453;-74
2022/12/10 06:14:46;;;;;;;20.80;13.53;;;-0.40;1.00;;;;;;10394698;28;20507;-77
2022/12/10 06:20:08;;;;;;;21.70;13.57;;;-0.50;1.00;;;;;;10396286;28;20194;-79
2022/12/10 06:25:29;;;;;;;19.27;11.83;;;-0.50;99.90;;;;;;10395025;28;20377;-79
2022/12/10 06:30:50;;;;;;;18.53;11.20;;;-0.50;99.90;;;;;;10395426;28;20253;-78
2022/12/10 06:36:14;;;;;;;20.37;12.73;;;-0.50;1.00;;;;;;10395825;28;20191;-80
2022/12/10 06:41:35;;;;;;;21.10;12.43;;;-0.50;1.00;;;;;;10395257;28;20201;-78
2022/12/10 06:46:56;;;;;;;18.77;12.43;;;-0.50;1.00;;;;;;10395286;28;20241;-78
2022/12/10 06:52:17;;;;;;;23.33;14.07;;;-0.50;1.00;;;;;;10395358;28;20214;-77
2022/12/10 06:57:38;;;;;;;24.40;14.70;;;-0.60;1.00;;;;;;10395011;28;20496;-78
2022/12/10 07:02:59;;;;;;;25.70;15.67;;;-0.60;1.00;;;;;;10394294;28;20515;-77
2022/12/10 07:08:20;;;;;;;39.27;18.67;;;-0.60;1.00;;;;;;10394271;28;20242;-77
2022/12/10 07:13:42;;;;;;;35.00;19.87;;;-0.60;1.00;;;;;;10375969;28;20302;-77
2022/12/10 07:19:03;;;;;;;39.80;19.87;;;-0.60;1.00;;;;;;10366805;28;20283;-75
2022/12/10 07:24:24;;;;;;;34.90;18.83;;;-0.60;1.00;;;;;;10354000;28;20207;-76
2022/12/10 07:29:46;;;;;;;38.53;21.47;;;-0.60;1.00;;;;;;10354734;28;20239;-79
2022/12/10 07:35:07;;;;;;;40.13;20.63;;;-0.60;99.90;;;;;;10366805;28;20192;-78
2022/12/10 07:40:28;;;;;;;37.30;18.97;;;-0.50;99.90;;;;;;10353742;28;20279;-77
2022/12/10 07:45:49;;;;;;;38.80;18.93;;;-0.50;1.00;;;;;;10392345;28;20196;-79
2022/12/10 07:51:11;;;;;;;34.30;17.57;;;-0.40;1.00;;;;;;10393278;28;20227;-79
2022/12/10 07:56:32;;;;;;;66.13;27.47;;;-0.40;99.90;;;;;;10393087;28;20250;-78
2022/12/10 08:01:53;;;;;;;63.47;27.83;;;-0.20;15.80;;;;;;10399699;28;20279;-77
2022/12/10 08:07:14;;;;;;;57.70;25.83;;;-0.10;28.80;;;;;;10399968;28;20227;-75
2022/12/10 08:12:35;;;;;;;56.43;26.27;;;-0.10;99.90;;;;;;10399191;28;20294;-75
2022/12/10 08:17:57;;;;;;;40.30;22.90;;;0.00;1.00;;;;;;10392735;28;20208;-75
2022/12/10 08:23:18;;;;;;;40.77;21.50;;;0.10;99.90;;;;;;10385609;28;20560;-77
2022/12/10 08:28:39;;;;;;;36.83;18.27;;;0.10;1.00;;;;;;10398939;28;20443;-77
2022/12/10 08:34:00;;;;;;;88.63;39.37;;;0.20;1.00;;;;;;10385493;28;20497;-74
2022/12/10 08:39:22;;;;;;;125.63;51.87;;;0.20;1.00;;;;;;10398847;28;20188;-75
2022/12/10 08:44:43;;;;;;;105.00;45.43;;;0.30;1.00;;;;;;10384778;28;20197;-76
2022/12/10 08:50:04;;;;;;;110.70;45.97;;;0.30;99.90;;;;;;10398356;28;20274;-75
2022/12/10 08:55:26;;;;;;;51.53;24.03;;;0.40;1.00;;;;;;10398426;28;20190;-75
2022/12/10 09:00:48;;;;;;;55.70;26.70;;;0.40;1.00;;;;;;10398054;28;20494;-77
2022/12/10 09:06:12;;;;;;;76.10;32.03;;;0.40;1.00;;;;;;10386291;28;20472;-77
2022/12/10 09:11:34;;;;;;;93.30;34.77;;;0.60;99.90;;;;;;10404567;28;20277;-77
2022/12/10 09:16:55;;;;;;;84.70;34.53;;;0.70;1.00;;;;;;10387301;28;20223;-79
2022/12/10 09:22:16;;;;;;;51.60;26.40;;;0.70;1.00;;;;;;10392707;28;20215;-78
2022/12/10 09:27:37;;;;;;;62.03;32.00;;;0.60;99.90;;;;;;10392215;28;20251;-78
2022/12/10 09:32:58;;;;;;;80.73;37.77;;;0.70;7.90;;;;;;10368184;28;20237;-79
2022/12/10 09:38:19;;;;;;;75.17;37.27;;;0.50;1.00;;;;;;10338126;28;20506;-75
2022/12/10 09:43:49;;;;;;;86.00;40.13;;;0.50;99.90;;;;;;10362461;28;20202;-75
2022/12/10 09:49:20;;;;;;;86.63;41.07;;;0.50;1.00;;;;;;10390971;28;20294;-78
2022/12/10 09:54:57;;;;;;;100.80;45.17;;;0.50;99.90;;;;;;10392653;28;20202;-79
2022/12/10 10:00:39;;;;;;;102.53;44.47;;;0.50;99.90;;;;;;10390592;28;20201;-76
2022/12/10 10:06:03;;;;;;;65.97;32.23;;;0.60;1.00;;;;;;10365756;28;20224;-76
2022/12/10 10:11:31;;;;;;;45.40;25.03;;;0.70;1.00;;;;;;10370290;28;20560;-77
2022/12/10 10:16:59;;;;;;;33.07;17.10;;;0.80;1.00;;;;;;10368068;28;20471;-75
2022/12/10 10:22:20;;;;;;;33.27;18.73;;;0.90;1.00;;;;;;10348587;28;20525;-76
2022/12/10 10:27:41;;;;;;;26.33;15.17;;;0.90;1.00;;;;;;10350126;28;20200;-76
2022/12/10 10:33:10;;;;;;;29.77;18.03;;;1.00;1.00;;;;;;10349906;28;20226;-76
2022/12/10 10:38:32;;;;;;;34.77;19.30;;;1.00;1.00;;;;;;10350605;28;20263;-77
2022/12/10 10:44:01;;;;;;;57.53;26.80;;;0.90;1.00;;;;;;10376169;28;20424;-79
2022/12/10 10:49:28;;;;;;;60.63;28.77;;;0.90;1.00;;;;;;10361602;28;20289;-77
2022/12/10 10:54:49;;;;;;;46.77;24.07;;;1.00;1.00;;;;;;10375190;28;20206;-78
2022/12/10 11:00:24;;;;;;;34.43;20.50;;;1.10;1.00;;;;;;10390629;28;20207;-79
2022/12/10 11:05:47;;;;;;;25.33;15.87;;;1.10;99.90;;;;;;10388429;28;20212;-79
2022/12/10 11:11:32;;;;;;;27.67;16.03;;;1.10;1.00;;;;;;10388590;28;20220;-77
2022/12/10 11:17:14;;;;;;;30.23;17.77;;;1.10;99.90;;;;;;10374663;28;20205;-76
2022/12/10 11:22:36;;;;;;;28.30;16.70;;;1.20;1.00;;;;;;10389351;28;20267;-76
2022/12/10 11:28:14;;;;;;;33.47;16.67;;;1.30;99.90;;;;;;10388088;28;20263;-77
2022/12/10 11:33:46;;;;;;;29.07;17.50;;;1.40;99.90;;;;;;10405534;28;20542;-76
2022/12/10 11:39:22;;;;;;;32.40;18.33;;;1.40;1.00;;;;;;10397116;28;20189;-76
2022/12/10 11:45:09;;;;;;;30.90;17.87;;;1.50;1.00;;;;;;10396510;28;20210;-76
2022/12/10 11:50:40;;;;;;;21.13;12.63;;;1.60;1.00;;;;;;10396264;28;20466;-82
2022/12/10 11:56:10;;;;;;;21.03;12.87;;;1.80;1.00;;;;;;10397250;28;20224;-77
2022/12/10 12:01:48;;;;;;;37.37;17.87;;;2.10;47.30;;;;;;10342139;28;20381;-79
2022/12/10 12:07:16;;;;;;;32.43;15.47;;;2.40;1.00;;;;;;10391473;28;20207;-78
2022/12/10 12:13:00;;;;;;;39.77;20.17;;;2.70;99.90;;;;;;10385313;28;20443;-75
2022/12/10 12:18:27;;;;;;;42.57;18.87;;;2.50;99.90;;;;;;10399890;28;20229;-78
2022/12/10 12:24:05;;;;;;;34.37;18.23;;;2.10;1.00;;;;;;10359432;28;20199;-74
2022/12/10 12:29:33;;;;;;;28.23;16.47;;;1.90;1.00;;;;;;10358068;28;20281;-76
2022/12/10 12:35:02;;;;;;;42.03;23.07;;;1.80;1.00;;;;;;10361349;28;20214;-78
2022/12/10 12:40:36;;;;;;;38.30;21.90;;;1.80;99.90;;;;;;10376460;28;20205;-78
2022/12/10 12:45:58;;;;;;;27.70;18.00;;;1.80;1.00;;;;;;10384265;28;20201;-74
2022/12/10 12:51:25;;;;;;;25.23;15.93;;;1.60;1.00;;;;;;10399492;28;20216;-77
2022/12/10 12:56:57;;;;;;;26.43;16.60;;;1.40;99.90;;;;;;10398140;28;20197;-77
2022/12/10 13:02:26;;;;;;;31.23;18.00;;;1.30;1.00;;;;;;10398380;28;20197;-78
2022/12/10 13:08:19;;;;;;;33.67;19.37;;;1.20;1.00;;;;;;10381047;28;20204;-80
2022/12/10 13:14:09;;;;;;;40.57;22.97;;;1.00;1.00;;;;;;10354211;28;20240;-74
2022/12/10 13:19:31;;;;;;;39.03;21.63;;;0.90;1.00;;;;;;10354477;28;20414;-75
2022/12/10 13:25:11;;;;;;;37.23;20.77;;;0.90;99.90;;;;;;10324233;28;20523;-78
2022/12/10 13:30:37;;;;;;;36.13;21.37;;;0.80;99.90;;;;;;10353392;28;20556;-76
2022/12/10 13:36:00;;;;;;;37.27;19.93;;;0.70;99.90;;;;;;10340025;28;20512;-77
2022/12/10 13:47:24;;;;;;;35.10;20.03;;;0.60;1.00;;;;;;10337582;28;20279;-75
2022/12/10 13:53:27;;;;;;;36.40;19.27;;;0.50;99.90;;;;;;10371725;28;20268;-77
2022/12/10 13:59:18;;;;;;;119.97;44.90;;;0.40;1.00;;;;;;10338546;28;20233;-77
2022/12/10 14:05:23;;;;;;;79.17;36.10;;;0.30;1.00;;;;;;10348252;28;20209;-77
2022/12/10 14:10:45;;;;;;;110.90;46.10;;;0.30;1.00;;;;;;10173195;29;20306;-76
2022/12/10 14:16:12;;;;;;;68.13;33.73;;;0.20;1.00;;;;;;10192680;29;20203;-76
2022/12/10 14:21:38;;;;;;;72.63;37.37;;;0.20;99.90;;;;;;10192822;29;20208;-80
2022/12/10 14:27:18;;;;;;;82.20;40.70;;;0.30;99.90;;;;;;10192438;29;20256;-79
2022/12/10 14:32:41;;;;;;;107.27;43.47;;;0.20;1.00;;;;;;10183772;29;20254;-76
2022/12/10 14:38:03;;;;;;;98.13;44.00;;;0.20;99.90;;;;;;10231941;29;20287;-75
2022/12/10 14:43:36;;;;;;;71.80;35.47;;;0.10;99.90;;;;;;10231469;29;20229;-76
2022/12/10 14:48:57;;;;;;;70.80;32.87;;;0.00;99.90;;;;;;10380496;28;20204;-74
2022/12/10 14:54:26;;;;;;;71.50;35.87;;;-0.20;99.90;;;;;;10394047;28;20203;-75
2022/12/10 15:00:04;;;;;;;91.67;46.60;;;-0.40;1.00;;;;;;10380361;28;20205;-75
2022/12/10 15:05:28;;;;;;;105.70;55.63;;;-0.50;1.00;;;;;;10376024;28;20455;-75
2022/12/10 15:10:56;;;;;;;124.47;59.00;;;-0.60;1.00;;;;;;10367837;28;20288;-76
2022/12/10 15:16:37;;;;;;;168.17;80.27;;;-0.70;13.50;;;;;;10388667;28;20192;-78
2022/12/10 15:22:11;;;;;;;207.07;94.77;;;-0.80;99.90;;;;;;10401857;28;20200;-77
2022/12/10 15:27:32;;;;;;;227.37;108.67;;;-0.80;99.90;;;;;;10388226;28;20190;-74
2022/12/10 15:32:54;;;;;;;207.53;104.80;;;-0.90;99.90;;;;;;10401122;28;20228;-76
2022/12/10 15:38:16;;;;;;;212.33;104.30;;;-1.00;99.90;;;;;;10401464;28;20226;-75
2022/12/10 15:43:36;;;;;;;221.03;105.57;;;-1.10;99.90;;;;;;10401363;28;20252;-75
2022/12/10 15:48:58;;;;;;;253.00;115.90;;;-1.20;99.90;;;;;;10401158;28;20524;-77
2022/12/10 15:54:22;;;;;;;270.60;120.07;;;-1.20;99.90;;;;;;10401443;28;20239;-74
2022/12/10 15:59:45;;;;;;;243.73;110.50;;;-1.30;1.00;;;;;;10401583;28;20190;-77
2022/12/10 16:05:15;;;;;;;231.53;105.87;;;-1.40;97.90;;;;;;10399440;28;20207;-80
2022/12/10 16:10:36;;;;;;;250.57;107.13;;;-1.50;99.90;;;;;;10400584;28;20223;-78
2022/12/10 16:16:05;;;;;;;291.77;125.40;;;-1.40;99.90;;;;;;10400363;28;20207;-79
2022/12/10 16:21:26;;;;;;;314.83;138.73;;;-1.40;99.90;;;;;;10399488;28;20280;-80
2022/12/10 16:26:47;;;;;;;268.37;129.53;;;-1.50;99.90;;;;;;10399728;28;20191;-79
2022/12/10 16:32:12;;;;;;;262.83;125.93;;;-1.60;99.90;;;;;;10398921;28;20228;-78
2022/12/10 16:37:33;;;;;;;200.27;99.83;;;-1.80;8.50;;;;;;10399133;28;20193;-80
2022/12/10 16:42:55;;;;;;;158.73;82.47;;;-1.80;84.00;;;;;;10384685;28;20199;-78
2022/12/10 16:48:17;;;;;;;149.17;78.97;;;-1.80;63.70;;;;;;10398856;28;20203;-78
2022/12/10 16:53:38;;;;;;;126.87;67.47;;;-1.90;1.00;;;;;;10398685;28;20249;-78
2022/12/10 16:59:00;;;;;;;165.23;83.40;;;-2.00;1.00;;;;;;10384443;28;20201;-77
2022/12/10 17:04:21;;;;;;;211.13;102.17;;;-2.00;1.00;;;;;;10394447;28;20232;-75
2022/12/10 17:09:42;;;;;;;256.63;115.27;;;-2.20;88.10;;;;;;10398869;28;20229;-79
2022/12/10 17:15:05;;;;;;;291.77;118.97;;;-2.30;99.90;;;;;;10397627;28;20202;-77
2022/12/10 17:20:26;;;;;;;343.90;134.40;;;-2.30;99.90;;;;;;10398157;28;20233;-77
2022/12/10 17:25:48;;;;;;;353.80;138.63;;;-2.10;99.90;;;;;;10398262;28;20191;-79
2022/12/10 17:31:09;;;;;;;284.53;118.30;;;-1.90;99.90;;;;;;10397414;28;20226;-79
2022/12/10 17:36:30;;;;;;;238.27;107.67;;;-1.90;99.90;;;;;;10357156;28;20191;-79
2022/12/10 17:41:52;;;;;;;236.67;105.40;;;-1.80;99.90;;;;;;10386866;28;20199;-79
2022/12/10 17:47:21;;;;;;;201.40;94.83;;;-1.70;1.00;;;;;;10397480;28;20492;-79
2022/12/10 17:52:42;;;;;;;213.83;98.60;;;-1.60;99.90;;;;;;10397442;28;20444;-80
2022/12/10 17:58:04;;;;;;;207.47;100.43;;;-1.60;99.90;;;;;;10397197;28;20186;-80
2022/12/10 18:03:25;;;;;;;232.97;106.70;;;-1.60;99.90;;;;;;10396232;28;20227;-79
2022/12/10 18:08:47;;;;;;;223.57;102.87;;;-1.80;99.90;;;;;;10395481;28;20195;-79
2022/12/10 18:14:08;;;;;;;212.60;97.10;;;-1.90;99.90;;;;;;10409565;28;20218;-78
2022/12/10 18:19:29;;;;;;;218.33;108.87;;;-1.80;1.00;;;;;;10381127;28;20202;-78
2022/12/10 18:24:51;;;;;;;154.93;85.27;;;-1.70;1.00;;;;;;10396120;28;20200;-79
2022/12/10 18:30:18;;;;;;;142.77;66.60;;;-1.70;99.90;;;;;;10395656;28;20239;-80
2022/12/10 18:35:40;;;;;;;112.03;56.20;;;-1.80;99.90;;;;;;10395810;28;20193;-80
2022/12/10 18:41:01;;;;;;;108.53;56.93;;;-1.80;99.90;;;;;;10394389;28;20226;-77
2022/12/10 18:46:25;;;;;;;125.10;62.07;;;-1.80;99.90;;;;;;10395507;28;20264;-78
2022/12/10 18:51:46;;;;;;;141.33;74.27;;;-1.90;99.90;;;;;;10394518;28;20225;-76
2022/12/10 18:57:12;;;;;;;146.10;76.97;;;-2.00;99.90;;;;;;10395404;28;20191;-77
2022/12/10 19:02:53;;;;;;;164.37;81.53;;;-2.10;41.00;;;;;;10393763;28;20274;-77
2022/12/10 19:08:14;;;;;;;166.63;83.10;;;-2.30;99.90;;;;;;10391126;28;20197;-77
2022/12/10 19:13:36;;;;;;;160.83;80.07;;;-2.40;99.90;;;;;;10379745;28;20232;-78
2022/12/10 19:19:00;;;;;;;141.57;70.23;;;-2.50;99.90;;;;;;10394946;28;20216;-77
2022/12/10 19:24:21;;;;;;;126.93;63.30;;;-2.50;99.90;;;;;;10394726;28;20197;-77
2022/12/10 19:29:45;;;;;;;123.43;63.13;;;-2.60;1.00;;;;;;10393199;28;20257;-77
2022/12/10 19:35:06;;;;;;;133.07;62.57;;;-2.70;1.00;;;;;;10393759;28;20195;-77
2022/12/10 19:40:30;;;;;;;137.10;65.03;;;-2.70;1.00;;;;;;10393564;28;20241;-80
2022/12/10 19:45:51;;;;;;;145.10;64.53;;;-2.70;1.00;;;;;;10394441;28;20533;-79
2022/12/10 19:51:14;;;;;;;116.20;55.13;;;-2.70;74.80;;;;;;10394500;28;20223;-80
2022/12/10 19:56:35;;;;;;;86.87;46.30;;;-2.60;1.00;;;;;;10399593;28;20211;-78
2022/12/10 20:01:56;;;;;;;62.70;35.37;;;-2.50;99.90;;;;;;10385929;28;20227;-76
2022/12/10 20:07:17;;;;;;;58.83;31.60;;;-2.40;93.60;;;;;;10400992;28;20273;-78
2022/12/10 20:12:38;;;;;;;91.57;45.53;;;-2.30;1.00;;;;;;10401098;28;20523;-77
2022/12/10 20:17:59;;;;;;;201.70;79.47;;;-2.20;1.00;;;;;;10400262;28;20507;-78
2022/12/10 20:23:21;;;;;;;151.47;70.60;;;-2.30;1.00;;;;;;10413874;28;20231;-77
2022/12/10 20:28:43;;;;;;;126.87;60.03;;;-2.20;1.00;;;;;;10400302;28;20251;-80
2022/12/10 20:34:08;;;;;;;190.67;70.70;;;-2.20;1.00;;;;;;10399969;28;20225;-78
2022/12/10 20:39:32;;;;;;;197.07;70.53;;;-2.30;1.00;;;;;;10399140;28;20223;-79
2022/12/10 20:44:53;;;;;;;130.33;56.37;;;-2.50;1.00;;;;;;10398861;28;20268;-80
2022/12/10 20:50:17;;;;;;;113.90;49.13;;;-2.60;1.00;;;;;;10398786;28;20235;-79
2022/12/10 20:55:38;;;;;;;98.30;45.87;;;-2.70;1.00;;;;;;10370825;28;20202;-77
2022/12/10 21:00:59;;;;;;;77.70;38.07;;;-2.80;1.00;;;;;;10384241;28;20193;-77
2022/12/10 21:06:25;;;;;;;61.40;32.60;;;-2.90;1.00;;;;;;10397054;28;20201;-79
2022/12/10 21:11:46;;;;;;;75.00;37.50;;;-3.00;99.90;;;;;;10383810;28;20432;-77
2022/12/10 21:17:09;;;;;;;102.43;44.80;;;-3.10;1.00;;;;;;10370147;28;20324;-77
2022/12/10 21:22:32;;;;;;;123.03;48.27;;;-3.10;1.00;;;;;;10397608;28;20551;-76
2022/12/10 21:27:52;;;;;;;97.07;43.03;;;-3.20;1.00;;;;;;10396834;28;20487;-80
2022/12/10 21:33:20;;;;;;;98.73;41.63;;;-3.30;1.00;;;;;;10396434;28;20269;-77
2022/12/10 21:38:42;;;;;;;106.13;48.37;;;;;;;;;;10382635;28;20201;-79
2022/12/10 21:44:03;;;;;;;130.53;56.67;;;-3.50;1.00;;;;;;10396822;28;20190;-78
2022/12/10 21:49:24;;;;;;;135.67;61.40;;;-3.50;1.00;;;;;;10396692;28;20188;-77
2022/12/10 21:54:46;;;;;;;157.97;69.03;;;-3.50;1.00;;;;;;10382074;28;20231;-78
2022/12/10 22:00:11;;;;;;;130.47;59.70;;;-3.50;1.00;;;;;;10396036;28;20514;-79
2022/12/10 22:05:32;;;;;;;170.27;71.30;;;-3.60;1.00;;;;;;10375810;28;20205;-76
2022/12/10 22:10:54;;;;;;;180.67;71.73;;;-3.60;1.00;;;;;;10395712;28;20207;-80
2022/12/10 22:16:15;;;;;;;153.23;63.63;;;-3.50;1.00;;;;;;10408881;28;20198;-79
2022/12/10 22:21:36;;;;;;;121.10;57.90;;;-3.50;99.90;;;;;;10381535;28;20221;-79
2022/12/10 22:26:57;;;;;;;121.80;57.47;;;-3.60;1.00;;;;;;10396123;28;20195;-76
2022/12/10 22:32:18;;;;;;;127.63;57.53;;;-3.60;1.00;;;;;;10394242;28;20240;-77
2022/12/10 22:37:39;;;;;;;141.47;63.57;;;-3.70;99.90;;;;;;10380829;28;20195;-76
2022/12/10 22:43:01;;;;;;;150.63;71.77;;;-3.70;99.90;;;;;;10381150;28;20219;-76
2022/12/10 22:48:36;;;;;;;142.47;69.00;;;-3.80;99.90;;;;;;10394524;28;20243;-76
2022/12/10 22:54:00;;;;;;;146.87;65.17;;;-3.90;99.90;;;;;;10395299;28;20247;-78
2022/12/10 22:59:46;;;;;;;166.20;72.27;;;-3.90;24.20;;;;;;10394817;28;20562;-77
2022/12/10 23:05:12;;;;;;;170.60;71.17;;;-4.00;1.00;;;;;;10389812;28;20197;-77
2022/12/10 23:10:34;;;;;;;179.77;70.50;;;-4.10;1.00;;;;;;10379975;28;20379;-77
2022/12/10 23:15:55;;;;;;;186.07;73.37;;;-4.10;1.00;;;;;;10394459;28;20202;-78
2022/12/10 23:21:26;;;;;;;178.33;71.93;;;-4.20;1.00;;;;;;10380071;28;20284;-79
2022/12/10 23:26:47;;;;;;;156.93;65.33;;;-4.20;99.90;;;;;;10393881;28;20200;-78
2022/12/10 23:32:08;;;;;;;141.03;60.10;;;-4.30;1.00;;;;;;10401666;28;20308;-79
2022/12/10 23:37:30;;;;;;;132.57;54.83;;;-4.30;1.00;;;;;;10387911;28;20264;-77
2022/12/10 23:42:51;;;;;;;122.13;56.53;;;-4.30;91.30;;;;;;10401478;28;20189;-77
2022/12/10 23:48:13;;;;;;;143.47;58.17;;;-4.30;1.00;;;;;;10373567;28;20259;-76
2022/12/10 23:53:34;;;;;;;135.77;56.93;;;-4.30;1.00;;;;;;10401814;28;20279;-76
2022/12/10 23:58:55;;;;;;;136.27;54.60;;;-4.30;1.00;;;;;;10400899;28;20187;-77
